sensor_id;sensor_type;location;lat;lon;timestamp;P1;durP1;ratioP1;P2;durP2;ratioP2
11935;SDS011;6027;48.576;9.180;2024-01-30T00:02:09;7.67;;;6.97;;
11935;SDS011;6027;48.576;9.180;2024-01-30T00:04:34;8.60;;;7.37;;
11935;SDS011;6027;48.576;9.180;2024-01-30T00:06:59;8.17;;;6.93;;
11935;SDS011;6027;48.576;9.180;2024-01-30T00:09:25;8.53;;;7.20;;
11935;SDS011;6027;48.576;9.180;2024-01-30T00:11:50;8.63;;;6.50;;
11935;SDS011;6027;48.576;9.180;2024-01-30T00:14:16;8.13;;;7.33;;
11935;SDS011;6027;48.576;9.180;2024-01-30T00:16:42;8.07;;;6.93;;
11935;SDS011;6027;48.576;9.180;2024-01-30T00:19:08;8.83;;;6.30;;
11935;SDS011;6027;48.576;9.180;2024-01-30T00:21:33;9.47;;;7.07;;
11935;SDS011;6027;48.576;9.180;2024-01-30T00:23:59;8.73;;;6.80;;
11935;SDS011;6027;48.576;9.180;2024-01-30T00:26:24;8.13;;;7.30;;
11935;SDS011;6027;48.576;9.180;2024-01-30T00:28:50;8.63;;;7.77;;
11935;SDS011;6027;48.576;9.180;2024-01-30T00:31:15;9.07;;;7.20;;
11935;SDS011;6027;48.576;9.180;2024-01-30T00:33:41;8.60;;;7.70;;
11935;SDS011;6027;48.576;9.180;2024-01-30T00:36:07;9.93;;;7.67;;
11935;SDS011;6027;48.576;9.180;2024-01-30T00:38:33;8.13;;;7.33;;
11935;SDS011;6027;48.576;9.180;2024-01-30T00:40:59;9.70;;;7.50;;
11935;SDS011;6027;48.576;9.180;2024-01-30T00:43:24;9.07;;;7.40;;
11935;SDS011;6027;48.576;9.180;2024-01-30T00:45:50;10.93;;;8.40;;
11935;SDS011;6027;48.576;9.180;2024-01-30T00:48:17;10.60;;;7.90;;
11935;SDS011;6027;48.576;9.180;2024-01-30T00:50:43;11.80;;;7.93;;
11935;SDS011;6027;48.576;9.180;2024-01-30T00:53:08;9.60;;;8.10;;
11935;SDS011;6027;48.576;9.180;2024-01-30T00:55:34;11.67;;;8.37;;
11935;SDS011;6027;48.576;9.180;2024-01-30T00:58:00;10.73;;;8.60;;
11935;SDS011;6027;48.576;9.180;2024-01-30T01:00:26;10.00;;;7.50;;
11935;SDS011;6027;48.576;9.180;2024-01-30T01:02:57;8.40;;;7.60;;
11935;SDS011;6027;48.576;9.180;2024-01-30T01:05:23;7.87;;;6.60;;
11935;SDS011;6027;48.576;9.180;2024-01-30T01:07:49;9.10;;;7.40;;
11935;SDS011;6027;48.576;9.180;2024-01-30T01:10:14;9.33;;;7.60;;
11935;SDS011;6027;48.576;9.180;2024-01-30T01:12:41;8.27;;;6.70;;
11935;SDS011;6027;48.576;9.180;2024-01-30T01:15:07;10.97;;;7.43;;
11935;SDS011;6027;48.576;9.180;2024-01-30T01:17:35;14.93;;;6.93;;
11935;SDS011;6027;48.576;9.180;2024-01-30T01:20:02;8.87;;;7.00;;
11935;SDS011;6027;48.576;9.180;2024-01-30T01:22:30;10.00;;;7.03;;
11935;SDS011;6027;48.576;9.180;2024-01-30T01:24:56;9.13;;;7.33;;
11935;SDS011;6027;48.576;9.180;2024-01-30T01:27:21;8.87;;;7.50;;
11935;SDS011;6027;48.576;9.180;2024-01-30T01:29:46;7.83;;;6.57;;
11935;SDS011;6027;48.576;9.180;2024-01-30T01:32:12;7.97;;;6.23;;
11935;SDS011;6027;48.576;9.180;2024-01-30T01:34:37;7.77;;;7.00;;
11935;SDS011;6027;48.576;9.180;2024-01-30T01:37:06;8.40;;;7.10;;
11935;SDS011;6027;48.576;9.180;2024-01-30T01:39:32;9.03;;;7.70;;
11935;SDS011;6027;48.576;9.180;2024-01-30T01:41:58;9.20;;;8.30;;
11935;SDS011;6027;48.576;9.180;2024-01-30T01:44:23;9.33;;;7.97;;
11935;SDS011;6027;48.576;9.180;2024-01-30T01:46:48;10.03;;;7.60;;
11935;SDS011;6027;48.576;9.180;2024-01-30T01:49:14;8.33;;;7.50;;
11935;SDS011;6027;48.576;9.180;2024-01-30T01:51:40;8.80;;;7.90;;
11935;SDS011;6027;48.576;9.180;2024-01-30T01:54:07;11.20;;;8.10;;
11935;SDS011;6027;48.576;9.180;2024-01-30T01:56:34;9.43;;;7.07;;
11935;SDS011;6027;48.576;9.180;2024-01-30T01:59:04;8.73;;;7.83;;
11935;SDS011;6027;48.576;9.180;2024-01-30T02:01:32;9.17;;;8.30;;
11935;SDS011;6027;48.576;9.180;2024-01-30T02:03:59;10.10;;;9.10;;
11935;SDS011;6027;48.576;9.180;2024-01-30T02:06:24;9.53;;;6.70;;
11935;SDS011;6027;48.576;9.180;2024-01-30T02:08:51;8.97;;;8.00;;
11935;SDS011;6027;48.576;9.180;2024-01-30T02:11:16;10.87;;;9.47;;
11935;SDS011;6027;48.576;9.180;2024-01-30T02:13:42;9.17;;;8.23;;
11935;SDS011;6027;48.576;9.180;2024-01-30T02:16:07;9.33;;;8.40;;
11935;SDS011;6027;48.576;9.180;2024-01-30T02:18:33;8.67;;;7.67;;
11935;SDS011;6027;48.576;9.180;2024-01-30T02:20:58;9.60;;;8.70;;
11935;SDS011;6027;48.576;9.180;2024-01-30T02:23:28;9.33;;;7.80;;
11935;SDS011;6027;48.576;9.180;2024-01-30T02:25:55;9.20;;;7.70;;
11935;SDS011;6027;48.576;9.180;2024-01-30T02:28:20;22.03;;;13.73;;
11935;SDS011;6027;48.576;9.180;2024-01-30T02:30:46;21.97;;;19.03;;
11935;SDS011;6027;48.576;9.180;2024-01-30T02:33:14;18.00;;;13.33;;
11935;SDS011;6027;48.576;9.180;2024-01-30T02:35:40;13.90;;;11.07;;
11935;SDS011;6027;48.576;9.180;2024-01-30T02:38:05;12.00;;;10.80;;
11935;SDS011;6027;48.576;9.180;2024-01-30T02:40:31;14.20;;;10.93;;
11935;SDS011;6027;48.576;9.180;2024-01-30T02:43:01;11.10;;;9.97;;
11935;SDS011;6027;48.576;9.180;2024-01-30T02:45:27;10.80;;;8.33;;
11935;SDS011;6027;48.576;9.180;2024-01-30T02:47:52;9.93;;;8.50;;
11935;SDS011;6027;48.576;9.180;2024-01-30T02:50:18;9.80;;;8.60;;
11935;SDS011;6027;48.576;9.180;2024-01-30T02:52:43;10.43;;;8.67;;
11935;SDS011;6027;48.576;9.180;2024-01-30T02:55:10;9.13;;;8.20;;
11935;SDS011;6027;48.576;9.180;2024-01-30T02:57:36;8.60;;;7.53;;
11935;SDS011;6027;48.576;9.180;2024-01-30T03:00:03;9.63;;;7.60;;
11935;SDS011;6027;48.576;9.180;2024-01-30T03:02:30;9.90;;;8.23;;
11935;SDS011;6027;48.576;9.180;2024-01-30T03:04:59;12.13;;;8.50;;
11935;SDS011;6027;48.576;9.180;2024-01-30T03:07:25;9.23;;;8.27;;
11935;SDS011;6027;48.576;9.180;2024-01-30T03:09:50;9.20;;;8.20;;
11935;SDS011;6027;48.576;9.180;2024-01-30T03:12:19;9.13;;;8.23;;
11935;SDS011;6027;48.576;9.180;2024-01-30T03:14:44;10.30;;;8.73;;
11935;SDS011;6027;48.576;9.180;2024-01-30T03:17:09;10.47;;;8.47;;
11935;SDS011;6027;48.576;9.180;2024-01-30T03:19:35;11.10;;;9.20;;
11935;SDS011;6027;48.576;9.180;2024-01-30T03:22:00;10.60;;;9.50;;
11935;SDS011;6027;48.576;9.180;2024-01-30T03:24:26;10.80;;;9.70;;
11935;SDS011;6027;48.576;9.180;2024-01-30T03:26:51;9.80;;;8.80;;
11935;SDS011;6027;48.576;9.180;2024-01-30T03:29:17;10.10;;;8.17;;
11935;SDS011;6027;48.576;9.180;2024-01-30T03:31:42;10.50;;;9.40;;
11935;SDS011;6027;48.576;9.180;2024-01-30T03:34:08;9.80;;;8.83;;
11935;SDS011;6027;48.576;9.180;2024-01-30T03:36:33;9.17;;;8.27;;
11935;SDS011;6027;48.576;9.180;2024-01-30T03:38:59;9.50;;;8.50;;
11935;SDS011;6027;48.576;9.180;2024-01-30T03:41:25;9.33;;;8.50;;
11935;SDS011;6027;48.576;9.180;2024-01-30T03:43:51;9.57;;;8.67;;
11935;SDS011;6027;48.576;9.180;2024-01-30T03:46:16;9.50;;;8.37;;
11935;SDS011;6027;48.576;9.180;2024-01-30T03:48:42;9.80;;;8.80;;
11935;SDS011;6027;48.576;9.180;2024-01-30T03:51:07;9.60;;;8.70;;
11935;SDS011;6027;48.576;9.180;2024-01-30T03:53:34;10.00;;;8.77;;
11935;SDS011;6027;48.576;9.180;2024-01-30T03:56:00;9.80;;;8.80;;
11935;SDS011;6027;48.576;9.180;2024-01-30T03:58:26;9.07;;;8.17;;
11935;SDS011;6027;48.576;9.180;2024-01-30T04:00:51;8.37;;;7.47;;
11935;SDS011;6027;48.576;9.180;2024-01-30T04:03:16;14.40;;;10.37;;
11935;SDS011;6027;48.576;9.180;2024-01-30T04:05:42;11.57;;;9.90;;
11935;SDS011;6027;48.576;9.180;2024-01-30T04:08:08;11.23;;;10.20;;
11935;SDS011;6027;48.576;9.180;2024-01-30T04:10:33;13.47;;;11.37;;
11935;SDS011;6027;48.576;9.180;2024-01-30T04:12:59;14.17;;;10.60;;
11935;SDS011;6027;48.576;9.180;2024-01-30T04:15:25;10.70;;;9.50;;
11935;SDS011;6027;48.576;9.180;2024-01-30T04:17:51;9.70;;;8.20;;
11935;SDS011;6027;48.576;9.180;2024-01-30T04:20:16;9.30;;;8.40;;
11935;SDS011;6027;48.576;9.180;2024-01-30T04:22:43;8.57;;;7.73;;
11935;SDS011;6027;48.576;9.180;2024-01-30T04:25:09;9.03;;;7.97;;
11935;SDS011;6027;48.576;9.180;2024-01-30T04:27:38;8.63;;;7.83;;
11935;SDS011;6027;48.576;9.180;2024-01-30T04:30:03;10.70;;;9.13;;
11935;SDS011;6027;48.576;9.180;2024-01-30T04:32:29;10.50;;;9.13;;
11935;SDS011;6027;48.576;9.180;2024-01-30T04:34:54;10.60;;;8.97;;
11935;SDS011;6027;48.576;9.180;2024-01-30T04:37:20;11.57;;;10.47;;
11935;SDS011;6027;48.576;9.180;2024-01-30T04:39:45;10.27;;;9.20;;
11935;SDS011;6027;48.576;9.180;2024-01-30T04:42:11;10.87;;;9.87;;
11935;SDS011;6027;48.576;9.180;2024-01-30T04:44:36;11.00;;;9.97;;
11935;SDS011;6027;48.576;9.180;2024-01-30T04:47:02;9.43;;;8.50;;
11935;SDS011;6027;48.576;9.180;2024-01-30T04:49:28;9.87;;;8.97;;
11935;SDS011;6027;48.576;9.180;2024-01-30T04:51:54;10.00;;;9.00;;
11935;SDS011;6027;48.576;9.180;2024-01-30T04:54:20;9.07;;;8.27;;
11935;SDS011;6027;48.576;9.180;2024-01-30T04:56:45;9.73;;;8.73;;
11935;SDS011;6027;48.576;9.180;2024-01-30T04:59:11;9.00;;;8.10;;
11935;SDS011;6027;48.576;9.180;2024-01-30T05:01:37;9.30;;;8.00;;
11935;SDS011;6027;48.576;9.180;2024-01-30T05:04:02;10.37;;;7.20;;
11935;SDS011;6027;48.576;9.180;2024-01-30T05:06:28;7.60;;;6.40;;
11935;SDS011;6027;48.576;9.180;2024-01-30T05:08:54;14.43;;;11.97;;
11935;SDS011;6027;48.576;9.180;2024-01-30T05:11:21;15.83;;;11.33;;
11935;SDS011;6027;48.576;9.180;2024-01-30T05:13:46;13.00;;;9.97;;
11935;SDS011;6027;48.576;9.180;2024-01-30T05:16:12;10.17;;;8.13;;
11935;SDS011;6027;48.576;9.180;2024-01-30T05:18:38;10.50;;;8.07;;
11935;SDS011;6027;48.576;9.180;2024-01-30T05:21:03;8.40;;;6.80;;
11935;SDS011;6027;48.576;9.180;2024-01-30T05:23:29;11.00;;;7.30;;
11935;SDS011;6027;48.576;9.180;2024-01-30T05:25:54;7.97;;;7.17;;
11935;SDS011;6027;48.576;9.180;2024-01-30T05:28:20;7.80;;;6.90;;
11935;SDS011;6027;48.576;9.180;2024-01-30T05:30:45;8.80;;;6.73;;
11935;SDS011;6027;48.576;9.180;2024-01-30T05:33:10;8.23;;;7.00;;
11935;SDS011;6027;48.576;9.180;2024-01-30T05:35:37;8.13;;;7.07;;
11935;SDS011;6027;48.576;9.180;2024-01-30T05:38:03;8.40;;;7.10;;
11935;SDS011;6027;48.576;9.180;2024-01-30T05:40:29;9.97;;;7.80;;
11935;SDS011;6027;48.576;9.180;2024-01-30T05:42:56;8.93;;;8.00;;
11935;SDS011;6027;48.576;9.180;2024-01-30T05:45:25;9.60;;;7.90;;
11935;SDS011;6027;48.576;9.180;2024-01-30T05:47:51;9.70;;;8.57;;
11935;SDS011;6027;48.576;9.180;2024-01-30T05:50:17;9.63;;;8.00;;
11935;SDS011;6027;48.576;9.180;2024-01-30T05:52:42;10.93;;;9.03;;
11935;SDS011;6027;48.576;9.180;2024-01-30T05:55:08;10.70;;;8.63;;
11935;SDS011;6027;48.576;9.180;2024-01-30T05:57:34;10.97;;;9.03;;
11935;SDS011;6027;48.576;9.180;2024-01-30T06:00:00;10.57;;;9.17;;
11935;SDS011;6027;48.576;9.180;2024-01-30T06:02:25;12.30;;;10.30;;
11935;SDS011;6027;48.576;9.180;2024-01-30T06:04:51;11.83;;;9.60;;
11935;SDS011;6027;48.576;9.180;2024-01-30T06:07:16;12.90;;;10.73;;
11935;SDS011;6027;48.576;9.180;2024-01-30T06:09:42;14.80;;;10.53;;
11935;SDS011;6027;48.576;9.180;2024-01-30T06:12:08;10.87;;;9.70;;
11935;SDS011;6027;48.576;9.180;2024-01-30T06:14:33;10.90;;;9.70;;
11935;SDS011;6027;48.576;9.180;2024-01-30T06:16:59;12.03;;;10.23;;
11935;SDS011;6027;48.576;9.180;2024-01-30T06:19:25;12.13;;;10.47;;
11935;SDS011;6027;48.576;9.180;2024-01-30T06:21:50;12.57;;;11.10;;
11935;SDS011;6027;48.576;9.180;2024-01-30T06:24:15;11.20;;;9.70;;
11935;SDS011;6027;48.576;9.180;2024-01-30T06:26:41;10.93;;;9.47;;
11935;SDS011;6027;48.576;9.180;2024-01-30T06:29:06;11.27;;;10.07;;
11935;SDS011;6027;48.576;9.180;2024-01-30T06:31:32;14.30;;;10.63;;
11935;SDS011;6027;48.576;9.180;2024-01-30T06:33:58;11.80;;;10.60;;
11935;SDS011;6027;48.576;9.180;2024-01-30T06:36:23;13.43;;;11.23;;
11935;SDS011;6027;48.576;9.180;2024-01-30T06:38:49;13.03;;;11.10;;
11935;SDS011;6027;48.576;9.180;2024-01-30T06:41:14;12.70;;;11.40;;
11935;SDS011;6027;48.576;9.180;2024-01-30T06:43:40;16.20;;;14.30;;
11935;SDS011;6027;48.576;9.180;2024-01-30T06:46:05;14.03;;;12.53;;
11935;SDS011;6027;48.576;9.180;2024-01-30T06:48:31;12.83;;;11.53;;
11935;SDS011;6027;48.576;9.180;2024-01-30T06:50:56;15.30;;;11.57;;
11935;SDS011;6027;48.576;9.180;2024-01-30T06:53:22;13.00;;;11.43;;
11935;SDS011;6027;48.576;9.180;2024-01-30T06:55:48;14.03;;;12.53;;
11935;SDS011;6027;48.576;9.180;2024-01-30T06:58:13;14.77;;;12.73;;
11935;SDS011;6027;48.576;9.180;2024-01-30T07:00:38;13.83;;;12.43;;
11935;SDS011;6027;48.576;9.180;2024-01-30T07:03:04;14.60;;;13.10;;
11935;SDS011;6027;48.576;9.180;2024-01-30T07:05:33;16.23;;;12.80;;
11935;SDS011;6027;48.576;9.180;2024-01-30T07:07:59;14.87;;;12.87;;
11935;SDS011;6027;48.576;9.180;2024-01-30T07:10:24;14.77;;;13.33;;
11935;SDS011;6027;48.576;9.180;2024-01-30T07:12:50;15.53;;;14.00;;
11935;SDS011;6027;48.576;9.180;2024-01-30T07:15:15;14.53;;;12.57;;
11935;SDS011;6027;48.576;9.180;2024-01-30T07:17:44;15.43;;;11.37;;
11935;SDS011;6027;48.576;9.180;2024-01-30T07:20:10;12.93;;;11.63;;
11935;SDS011;6027;48.576;9.180;2024-01-30T07:22:36;11.03;;;9.93;;
11935;SDS011;6027;48.576;9.180;2024-01-30T07:25:01;15.90;;;10.73;;
11935;SDS011;6027;48.576;9.180;2024-01-30T07:27:27;14.53;;;10.53;;
11935;SDS011;6027;48.576;9.180;2024-01-30T07:29:52;11.33;;;9.57;;
11935;SDS011;6027;48.576;9.180;2024-01-30T07:32:18;12.40;;;10.13;;
11935;SDS011;6027;48.576;9.180;2024-01-30T07:34:43;13.50;;;10.30;;
11935;SDS011;6027;48.576;9.180;2024-01-30T07:37:09;13.83;;;12.30;;
11935;SDS011;6027;48.576;9.180;2024-01-30T07:39:35;12.65;;;11.15;;
11935;SDS011;6027;48.576;9.180;2024-01-30T07:42:02;12.03;;;10.90;;
11935;SDS011;6027;48.576;9.180;2024-01-30T07:44:27;11.63;;;10.53;;
11935;SDS011;6027;48.576;9.180;2024-01-30T07:46:53;11.90;;;10.67;;
11935;SDS011;6027;48.576;9.180;2024-01-30T07:49:19;13.00;;;11.27;;
11935;SDS011;6027;48.576;9.180;2024-01-30T07:51:44;12.83;;;11.43;;
11935;SDS011;6027;48.576;9.180;2024-01-30T07:54:10;12.07;;;10.87;;
11935;SDS011;6027;48.576;9.180;2024-01-30T07:56:38;11.53;;;10.37;;
11935;SDS011;6027;48.576;9.180;2024-01-30T07:59:04;11.20;;;10.17;;
11935;SDS011;6027;48.576;9.180;2024-01-30T08:01:29;12.70;;;11.40;;
11935;SDS011;6027;48.576;9.180;2024-01-30T08:03:54;11.23;;;10.13;;
11935;SDS011;6027;48.576;9.180;2024-01-30T08:06:20;11.37;;;10.27;;
11935;SDS011;6027;48.576;9.180;2024-01-30T08:08:45;10.57;;;9.43;;
11935;SDS011;6027;48.576;9.180;2024-01-30T08:11:11;10.63;;;9.53;;
11935;SDS011;6027;48.576;9.180;2024-01-30T08:13:37;10.80;;;9.80;;
11935;SDS011;6027;48.576;9.180;2024-01-30T08:16:03;10.40;;;9.30;;
11935;SDS011;6027;48.576;9.180;2024-01-30T08:18:29;10.43;;;9.43;;
11935;SDS011;6027;48.576;9.180;2024-01-30T08:20:57;10.10;;;9.10;;
11935;SDS011;6027;48.576;9.180;2024-01-30T08:23:23;10.07;;;9.07;;
11935;SDS011;6027;48.576;9.180;2024-01-30T08:25:48;11.07;;;9.83;;
11935;SDS011;6027;48.576;9.180;2024-01-30T08:28:13;11.10;;;9.83;;
11935;SDS011;6027;48.576;9.180;2024-01-30T08:30:39;11.23;;;10.10;;
11935;SDS011;6027;48.576;9.180;2024-01-30T08:33:04;11.07;;;9.97;;
11935;SDS011;6027;48.576;9.180;2024-01-30T08:35:30;11.33;;;10.13;;
11935;SDS011;6027;48.576;9.180;2024-01-30T08:37:58;10.17;;;9.17;;
11935;SDS011;6027;48.576;9.180;2024-01-30T08:40:24;11.73;;;10.53;;
11935;SDS011;6027;48.576;9.180;2024-01-30T08:42:50;10.83;;;9.33;;
11935;SDS011;6027;48.576;9.180;2024-01-30T08:45:15;10.50;;;9.50;;
11935;SDS011;6027;48.576;9.180;2024-01-30T08:47:43;12.13;;;9.17;;
11935;SDS011;6027;48.576;9.180;2024-01-30T08:50:09;9.97;;;8.70;;
11935;SDS011;6027;48.576;9.180;2024-01-30T08:52:34;9.23;;;8.33;;
11935;SDS011;6027;48.576;9.180;2024-01-30T08:55:00;8.90;;;8.00;;
11935;SDS011;6027;48.576;9.180;2024-01-30T08:57:25;8.53;;;7.73;;
11935;SDS011;6027;48.576;9.180;2024-01-30T08:59:53;8.00;;;6.53;;
11935;SDS011;6027;48.576;9.180;2024-01-30T09:02:19;32.57;;;28.67;;
11935;SDS011;6027;48.576;9.180;2024-01-30T09:04:46;41.33;;;35.23;;
11935;SDS011;6027;48.576;9.180;2024-01-30T09:07:11;13.57;;;11.97;;
11935;SDS011;6027;48.576;9.180;2024-01-30T09:09:38;9.37;;;8.47;;
11935;SDS011;6027;48.576;9.180;2024-01-30T09:12:06;9.23;;;7.57;;
11935;SDS011;6027;48.576;9.180;2024-01-30T09:14:34;8.63;;;7.03;;
11935;SDS011;6027;48.576;9.180;2024-01-30T09:17:00;7.00;;;6.30;;
11935;SDS011;6027;48.576;9.180;2024-01-30T09:19:26;7.93;;;6.50;;
11935;SDS011;6027;48.576;9.180;2024-01-30T09:21:51;8.10;;;6.40;;
11935;SDS011;6027;48.576;9.180;2024-01-30T09:24:17;7.50;;;6.33;;
11935;SDS011;6027;48.576;9.180;2024-01-30T09:26:42;7.40;;;6.23;;
11935;SDS011;6027;48.576;9.180;2024-01-30T09:29:08;6.57;;;5.80;;
11935;SDS011;6027;48.576;9.180;2024-01-30T09:31:33;7.13;;;6.20;;
11935;SDS011;6027;48.576;9.180;2024-01-30T09:33:58;9.70;;;8.20;;
11935;SDS011;6027;48.576;9.180;2024-01-30T09:36:24;8.83;;;7.93;;
11935;SDS011;6027;48.576;9.180;2024-01-30T09:38:49;9.57;;;7.20;;
11935;SDS011;6027;48.576;9.180;2024-01-30T09:41:15;7.83;;;6.63;;
11935;SDS011;6027;48.576;9.180;2024-01-30T09:43:44;10.33;;;7.40;;
11935;SDS011;6027;48.576;9.180;2024-01-30T09:46:16;10.10;;;6.57;;
11935;SDS011;6027;48.576;9.180;2024-01-30T09:48:48;11.67;;;6.37;;
11935;SDS011;6027;48.576;9.180;2024-01-30T09:51:15;7.83;;;6.10;;
11935;SDS011;6027;48.576;9.180;2024-01-30T09:53:42;8.60;;;5.90;;
11935;SDS011;6027;48.576;9.180;2024-01-30T09:56:08;7.77;;;5.97;;
11935;SDS011;6027;48.576;9.180;2024-01-30T09:58:34;7.63;;;6.10;;
11935;SDS011;6027;48.576;9.180;2024-01-30T10:00:59;7.50;;;5.73;;
11935;SDS011;6027;48.576;9.180;2024-01-30T10:03:25;8.93;;;5.70;;
11935;SDS011;6027;48.576;9.180;2024-01-30T10:05:51;7.93;;;5.40;;
11935;SDS011;6027;48.576;9.180;2024-01-30T10:08:17;6.93;;;5.33;;
11935;SDS011;6027;48.576;9.180;2024-01-30T10:10:49;7.87;;;5.77;;
11935;SDS011;6027;48.576;9.180;2024-01-30T10:13:15;10.03;;;6.27;;
11935;SDS011;6027;48.576;9.180;2024-01-30T10:15:41;7.93;;;5.83;;
11935;SDS011;6027;48.576;9.180;2024-01-30T10:18:08;7.37;;;5.33;;
11935;SDS011;6027;48.576;9.180;2024-01-30T10:20:35;10.87;;;5.87;;
11935;SDS011;6027;48.576;9.180;2024-01-30T10:23:01;9.13;;;5.72;;
11935;SDS011;6027;48.576;9.180;2024-01-30T10:25:26;16.13;;;10.50;;
11935;SDS011;6027;48.576;9.180;2024-01-30T10:27:52;22.50;;;12.30;;
11935;SDS011;6027;48.576;9.180;2024-01-30T10:30:20;15.30;;;8.93;;
11935;SDS011;6027;48.576;9.180;2024-01-30T10:32:46;48.20;;;19.75;;
11935;SDS011;6027;48.576;9.180;2024-01-30T10:35:12;32.90;;;14.10;;
11935;SDS011;6027;48.576;9.180;2024-01-30T10:37:37;23.20;;;9.60;;
11935;SDS011;6027;48.576;9.180;2024-01-30T10:40:03;12.43;;;6.18;;
11935;SDS011;6027;48.576;9.180;2024-01-30T10:42:31;12.90;;;5.80;;
11935;SDS011;6027;48.576;9.180;2024-01-30T10:45:07;11.10;;;6.95;;
11935;SDS011;6027;48.576;9.180;2024-01-30T10:47:34;8.02;;;5.68;;
11935;SDS011;6027;48.576;9.180;2024-01-30T10:50:03;11.57;;;5.80;;
11935;SDS011;6027;48.576;9.180;2024-01-30T10:52:29;8.60;;;5.90;;
11935;SDS011;6027;48.576;9.180;2024-01-30T10:54:55;10.75;;;5.63;;
11935;SDS011;6027;48.576;9.180;2024-01-30T10:57:24;10.90;;;5.75;;
11935;SDS011;6027;48.576;9.180;2024-01-30T10:59:51;8.48;;;5.80;;
11935;SDS011;6027;48.576;9.180;2024-01-30T11:02:20;10.63;;;6.10;;
11935;SDS011;6027;48.576;9.180;2024-01-30T11:04:46;9.35;;;6.15;;
11935;SDS011;6027;48.576;9.180;2024-01-30T11:07:25;9.77;;;6.03;;
11935;SDS011;6027;48.576;9.180;2024-01-30T11:09:52;11.20;;;5.72;;
11935;SDS011;6027;48.576;9.180;2024-01-30T11:12:23;10.18;;;5.50;;
11935;SDS011;6027;48.576;9.180;2024-01-30T11:14:50;9.90;;;5.63;;
11935;SDS011;6027;48.576;9.180;2024-01-30T11:17:28;8.77;;;4.90;;
11935;SDS011;6027;48.576;9.180;2024-01-30T11:20:04;6.47;;;4.13;;
11935;SDS011;6027;48.576;9.180;2024-01-30T11:22:30;5.43;;;4.45;;
11935;SDS011;6027;48.576;9.180;2024-01-30T11:24:55;10.38;;;5.22;;
11935;SDS011;6027;48.576;9.180;2024-01-30T11:27:21;14.35;;;5.22;;
11935;SDS011;6027;48.576;9.180;2024-01-30T11:29:49;11.85;;;5.60;;
11935;SDS011;6027;48.576;9.180;2024-01-30T11:32:21;10.70;;;6.18;;
11935;SDS011;6027;48.576;9.180;2024-01-30T11:34:50;10.32;;;5.00;;
11935;SDS011;6027;48.576;9.180;2024-01-30T11:37:16;10.75;;;5.22;;
11935;SDS011;6027;48.576;9.180;2024-01-30T11:39:46;13.25;;;7.47;;
11935;SDS011;6027;48.576;9.180;2024-01-30T11:42:13;18.35;;;12.63;;
11935;SDS011;6027;48.576;9.180;2024-01-30T11:44:39;8.95;;;6.75;;
11935;SDS011;6027;48.576;9.180;2024-01-30T11:47:05;14.07;;;4.90;;
11935;SDS011;6027;48.576;9.180;2024-01-30T11:49:30;6.57;;;5.45;;
11935;SDS011;6027;48.576;9.180;2024-01-30T11:51:56;11.15;;;8.15;;
11935;SDS011;6027;48.576;9.180;2024-01-30T11:54:21;10.00;;;6.28;;
11935;SDS011;6027;48.576;9.180;2024-01-30T11:56:47;12.68;;;6.53;;
11935;SDS011;6027;48.576;9.180;2024-01-30T11:59:13;13.07;;;6.80;;
11935;SDS011;6027;48.576;9.180;2024-01-30T12:01:39;12.95;;;6.63;;
11935;SDS011;6027;48.576;9.180;2024-01-30T12:04:04;12.73;;;5.50;;
11935;SDS011;6027;48.576;9.180;2024-01-30T12:06:34;14.05;;;5.88;;
11935;SDS011;6027;48.576;9.180;2024-01-30T12:09:00;10.43;;;5.50;;
11935;SDS011;6027;48.576;9.180;2024-01-30T12:11:29;11.60;;;5.70;;
11935;SDS011;6027;48.576;9.180;2024-01-30T12:13:56;12.98;;;5.72;;
11935;SDS011;6027;48.576;9.180;2024-01-30T12:16:21;8.13;;;5.22;;
11935;SDS011;6027;48.576;9.180;2024-01-30T12:18:47;8.40;;;5.22;;
11935;SDS011;6027;48.576;9.180;2024-01-30T12:21:16;12.93;;;5.53;;
11935;SDS011;6027;48.576;9.180;2024-01-30T12:23:42;9.38;;;4.95;;
11935;SDS011;6027;48.576;9.180;2024-01-30T12:26:08;9.63;;;5.50;;
11935;SDS011;6027;48.576;9.180;2024-01-30T12:28:34;9.25;;;5.07;;
11935;SDS011;6027;48.576;9.180;2024-01-30T12:31:06;11.93;;;8.05;;
11935;SDS011;6027;48.576;9.180;2024-01-30T12:33:31;11.70;;;7.88;;
11935;SDS011;6027;48.576;9.180;2024-01-30T12:35:57;9.70;;;6.53;;
11935;SDS011;6027;48.576;9.180;2024-01-30T12:38:26;13.15;;;5.85;;
11935;SDS011;6027;48.576;9.180;2024-01-30T12:40:55;13.80;;;4.85;;
11935;SDS011;6027;48.576;9.180;2024-01-30T12:43:21;10.20;;;5.53;;
11935;SDS011;6027;48.576;9.180;2024-01-30T12:45:47;9.80;;;5.70;;
11935;SDS011;6027;48.576;9.180;2024-01-30T12:48:13;7.78;;;5.38;;
11935;SDS011;6027;48.576;9.180;2024-01-30T12:50:39;11.13;;;5.95;;
11935;SDS011;6027;48.576;9.180;2024-01-30T12:53:04;10.88;;;4.63;;
11935;SDS011;6027;48.576;9.180;2024-01-30T12:55:31;6.55;;;4.65;;
11935;SDS011;6027;48.576;9.180;2024-01-30T12:57:56;7.38;;;5.68;;
11935;SDS011;6027;48.576;9.180;2024-01-30T13:00:22;8.60;;;4.90;;
11935;SDS011;6027;48.576;9.180;2024-01-30T13:02:47;8.65;;;5.30;;
11935;SDS011;6027;48.576;9.180;2024-01-30T13:05:13;6.85;;;4.90;;
11935;SDS011;6027;48.576;9.180;2024-01-30T13:07:39;9.52;;;4.80;;
11935;SDS011;6027;48.576;9.180;2024-01-30T13:10:04;6.30;;;4.00;;
11935;SDS011;6027;48.576;9.180;2024-01-30T13:12:31;8.18;;;4.43;;
11935;SDS011;6027;48.576;9.180;2024-01-30T13:15:00;6.95;;;4.38;;
11935;SDS011;6027;48.576;9.180;2024-01-30T13:17:26;7.05;;;4.10;;
11935;SDS011;6027;48.576;9.180;2024-01-30T13:19:52;8.45;;;4.78;;
11935;SDS011;6027;48.576;9.180;2024-01-30T13:22:19;7.43;;;4.72;;
11935;SDS011;6027;48.576;9.180;2024-01-30T13:24:46;6.97;;;4.05;;
11935;SDS011;6027;48.576;9.180;2024-01-30T13:27:12;9.57;;;5.00;;
11935;SDS011;6027;48.576;9.180;2024-01-30T13:29:38;9.07;;;3.80;;
11935;SDS011;6027;48.576;9.180;2024-01-30T13:32:04;9.07;;;4.00;;
11935;SDS011;6027;48.576;9.180;2024-01-30T13:34:30;8.52;;;4.22;;
11935;SDS011;6027;48.576;9.180;2024-01-30T13:36:56;7.57;;;3.67;;
11935;SDS011;6027;48.576;9.180;2024-01-30T13:39:21;5.03;;;3.63;;
11935;SDS011;6027;48.576;9.180;2024-01-30T13:41:47;5.90;;;3.97;;
11935;SDS011;6027;48.576;9.180;2024-01-30T13:44:13;8.77;;;3.35;;
11935;SDS011;6027;48.576;9.180;2024-01-30T13:46:39;6.53;;;3.50;;
11935;SDS011;6027;48.576;9.180;2024-01-30T13:49:04;5.07;;;3.38;;
11935;SDS011;6027;48.576;9.180;2024-01-30T13:51:29;8.35;;;3.97;;
11935;SDS011;6027;48.576;9.180;2024-01-30T13:53:55;6.97;;;3.67;;
11935;SDS011;6027;48.576;9.180;2024-01-30T13:56:20;7.53;;;4.25;;
11935;SDS011;6027;48.576;9.180;2024-01-30T13:58:48;5.38;;;3.67;;
11935;SDS011;6027;48.576;9.180;2024-01-30T14:01:14;5.30;;;3.13;;
11935;SDS011;6027;48.576;9.180;2024-01-30T14:03:40;6.32;;;3.35;;
11935;SDS011;6027;48.576;9.180;2024-01-30T14:06:05;11.40;;;3.33;;
11935;SDS011;6027;48.576;9.180;2024-01-30T14:08:31;5.75;;;2.80;;
11935;SDS011;6027;48.576;9.180;2024-01-30T14:10:57;5.57;;;2.92;;
11935;SDS011;6027;48.576;9.180;2024-01-30T14:13:22;6.68;;;2.70;;
11935;SDS011;6027;48.576;9.180;2024-01-30T14:15:48;7.03;;;3.35;;
11935;SDS011;6027;48.576;9.180;2024-01-30T14:18:14;6.43;;;3.25;;
11935;SDS011;6027;48.576;9.180;2024-01-30T14:20:40;6.10;;;3.20;;
11935;SDS011;6027;48.576;9.180;2024-01-30T14:23:05;9.25;;;3.22;;
11935;SDS011;6027;48.576;9.180;2024-01-30T14:25:32;6.55;;;3.55;;
11935;SDS011;6027;48.576;9.180;2024-01-30T14:27:57;5.38;;;3.65;;
11935;SDS011;6027;48.576;9.180;2024-01-30T14:30:23;5.97;;;3.97;;
11935;SDS011;6027;48.576;9.180;2024-01-30T14:32:48;6.72;;;4.10;;
11935;SDS011;6027;48.576;9.180;2024-01-30T14:35:14;5.80;;;3.90;;
11935;SDS011;6027;48.576;9.180;2024-01-30T14:37:40;5.47;;;3.25;;
11935;SDS011;6027;48.576;9.180;2024-01-30T14:40:05;4.22;;;3.13;;
11935;SDS011;6027;48.576;9.180;2024-01-30T14:42:34;3.88;;;2.92;;
11935;SDS011;6027;48.576;9.180;2024-01-30T14:45:01;5.90;;;3.40;;
11935;SDS011;6027;48.576;9.180;2024-01-30T14:47:27;5.07;;;3.33;;